Time;durP1;ratioP1;P1;durP2;ratioP2;P2;SDS_P1;SDS_P2;PMS_P1;PMS_P2;Temp;Humidity;BMP_temperature;BMP_pressure;BME280_temperature;BME280_humidity;BME280_pressure;Samples;Min_cycle;Max_cycle;Signal;HPM_P1;HPM_P2
2021/05/06 00:33:09;;;;;;;4.82;1.60;;;;;;;8.21;53.58;99416.41;5062429;27;96604;-84
2021/05/06 00:35:36;;;;;;;4.35;1.70;;;;;;;8.25;52.96;99418.81;5043227;27;97343;-85
2021/05/06 00:38:13;;;;;;;5.53;2.17;;;;;;;8.29;52.98;99419.56;5059579;27;98124;-85
2021/05/06 00:53:59;;;;;;;5.20;1.30;;;;;;;8.18;52.88;99417.38;5076271;27;97193;-85
2021/05/06 00:54:42;;;;;;;4.33;1.30;;;;;;;8.06;53.31;99420.47;5079965;27;97070;-84
2021/05/06 01:12:24;;;;;;;3.27;1.50;;;;;;;8.06;53.32;99423.06;5060656;27;101248;-85
2021/05/06 01:14:51;;;;;;;3.38;1.50;;;;;;;8.05;53.24;99434.41;5051639;27;96597;-84
2021/05/06 01:17:17;;;;;;;3.63;1.23;;;;;;;8.00;53.52;99433.72;5022666;27;96934;-84
2021/05/06 01:19:42;;;;;;;2.35;1.45;;;;;;;8.06;53.53;99431.75;5035520;27;100217;-84
2021/05/06 01:22:08;;;;;;;4.13;1.33;;;;;;;7.96;53.45;99433.00;5021547;27;101537;-84
2021/05/06 01:24:34;;;;;;;6.47;1.43;;;;;;;7.97;53.48;99442.56;5039167;27;96659;-84
2021/05/06 01:27:38;;;;;;;2.83;1.37;;;;;;;7.99;53.57;99445.09;5021375;27;97130;-84
2021/05/06 01:32:50;;;;;;;5.25;1.60;;;;;;;7.95;53.13;99444.38;5074735;27;98405;-84
2021/05/06 01:35:22;;;;;;;3.53;1.23;;;;;;;7.98;53.19;99440.81;5034072;27;97110;-84
2021/05/06 01:38:22;;;;;;;3.33;1.50;;;;;;;7.98;53.00;99441.66;5022464;27;97185;-82
2021/05/06 01:59:33;;;;;;;4.13;1.70;;;;;;;7.82;53.02;99450.94;5050203;27;96968;-84
2021/05/06 02:01:59;;;;;;;5.80;1.70;;;;;;;7.79;53.40;99449.31;5030052;27;100910;-83
2021/05/06 02:04:25;;;;;;;6.40;1.83;;;;;;;7.82;53.36;99450.94;5041639;27;101832;-83
2021/05/06 02:06:51;;;;;;;5.13;1.47;;;;;;;7.86;53.70;99448.19;5037003;27;96917;-83
2021/05/06 02:09:34;;;;;;;7.88;3.13;;;;;;;7.81;53.24;99460.56;5046343;27;97311;-83
2021/05/06 02:12:02;;;;;;;5.47;1.53;;;;;;;7.80;53.02;99451.03;5044554;27;101305;-84
2021/05/06 02:14:38;;;;;;;4.97;1.92;;;;;;;7.80;53.20;99458.88;5042024;27;100504;-83
2021/05/06 02:17:04;;;;;;;2.20;1.40;;;;;;;7.76;53.07;99452.03;5075160;27;97280;-83
2021/05/06 02:19:34;;;;;;;8.33;2.07;;;;;;;7.78;53.23;99458.06;5059138;27;97289;-86
2021/05/06 02:22:03;;;;;;;6.27;2.37;;;;;;;7.77;53.49;99460.75;5075258;27;97719;-87
2021/05/06 02:24:29;;;;;;;6.73;2.67;;;;;;;7.70;53.40;99465.31;5059300;27;98022;-87
2021/05/06 02:26:54;;;;;;;11.17;3.87;;;;;;;7.69;53.25;99461.00;5040758;27;97025;-84
2021/05/06 02:29:20;;;;;;;6.63;3.07;;;;;;;7.74;53.42;99468.66;5038553;27;98313;-84
2021/05/06 02:31:45;;;;;;;9.03;2.90;;;;;;;7.62;53.67;99463.00;5054458;27;101356;-83
2021/05/06 02:34:11;;;;;;;4.67;2.50;;;;;;;7.64;53.49;99474.22;5059050;27;99063;-84
2021/05/06 02:36:37;;;;;;;6.03;2.57;;;;;;;7.65;53.36;99467.22;5074850;27;96937;-84
2021/05/06 02:39:04;;;;;;;5.90;2.20;;;;;;;7.66;53.51;99484.63;5052513;27;96933;-84
2021/05/06 02:41:29;;;;;;;4.67;1.97;;;;;;;7.63;53.71;99476.91;5045857;27;101034;-85
2021/05/06 02:43:55;;;;;;;6.57;2.20;;;;;;;7.63;53.66;99484.75;5035481;27;101447;-84
2021/05/06 02:46:20;;;;;;;6.80;2.00;;;;;;;7.63;53.85;99488.19;5049694;27;97172;-85
2021/05/06 02:48:46;;;;;;;4.53;2.00;;;;;;;7.59;53.88;99490.94;5059090;27;96681;-83
2021/05/06 02:51:12;;;;;;;5.50;1.93;;;;;;;7.58;53.64;99484.88;5074953;27;98778;-85
2021/05/06 02:53:45;;;;;;;7.27;2.23;;;;;;;7.56;53.65;99494.53;5041207;27;100138;-85
2021/05/06 02:56:14;;;;;;;4.10;1.70;;;;;;;7.50;53.85;99494.75;5056853;27;96892;-84
2021/05/06 03:04:01;;;;;;;3.83;2.00;;;;;;;7.42;54.35;99491.56;5059822;27;100975;-84
2021/05/06 03:06:29;;;;;;;3.13;1.90;;;;;;;7.40;54.35;99496.81;5057697;27;96736;-85
2021/05/06 03:09:02;;;;;;;5.47;1.97;;;;;;;7.45;54.31;99497.53;5040892;27;97091;-84
2021/05/06 03:11:38;;;;;;;5.57;1.98;;;;;;;7.43;54.19;99491.50;5036565;27;100649;-85
2021/05/06 03:24:27;;;;;;;6.50;2.20;;;;;;;7.47;54.36;99502.69;5061514;27;101203;-85
2021/05/06 03:26:53;;;;;;;7.13;2.25;;;;;;;7.45;54.49;99497.53;5061214;27;96676;-84
2021/05/06 03:29:35;;;;;;;3.97;2.10;;;;;;;7.53;54.63;99496.41;5061645;27;96882;-84
2021/05/06 03:35:03;;;;;;;5.93;2.45;;;;;;;7.58;54.15;99500.56;5062084;27;101323;-85
2021/05/06 04:18:36;;;;;;;5.20;2.45;;;;;;;8.15;53.82;99556.03;5029646;27;100069;-85
2021/05/06 04:30:00;;;;;;;6.97;2.80;;;;;;;8.26;53.96;99561.75;5071049;27;100332;-85
2021/05/06 04:37:50;;;;;;;3.72;2.00;;;;;;;10.30;49.96;99571.00;5041266;27;101529;-84
2021/05/06 04:54:10;;;;;;;8.43;2.35;;;;;;;18.27;35.04;99558.47;5061912;27;96744;-85
2021/05/06 04:56:55;;;;;;;6.53;2.75;;;;;;;18.82;34.30;99558.59;5045067;27;96940;-86
2021/05/06 05:04:49;;;;;;;8.75;2.83;;;;;;;20.13;32.14;99562.81;5062596;27;96926;-83
2021/05/06 05:12:39;;;;;;;15.53;3.27;;;;;;;20.99;31.05;99556.16;5056852;27;100416;-84
2021/05/06 05:25:39;;;;;;;6.05;2.60;;;;;;;22.97;28.37;99551.06;5041167;27;97235;-85
2021/05/06 05:28:06;;;;;;;3.92;2.10;;;;;;;23.16;27.77;99557.31;5032961;27;97034;-85
2021/05/06 05:30:34;;;;;;;6.97;2.50;;;;;;;23.15;27.51;99550.25;5042519;27;101934;-85
2021/05/06 05:33:00;;;;;;;5.68;2.70;;;;;;;23.57;27.29;99560.38;5042010;27;101378;-85
2021/05/06 05:37:54;;;;;;;5.05;2.53;;;;;;;24.11;26.59;99571.84;5066631;27;97462;-85
2021/05/06 05:42:57;;;;;;;5.78;2.72;;;;;;;24.53;25.37;99568.47;5063549;27;97960;-84
2021/05/06 05:56:01;;;;;;;3.38;2.03;;;;;;;25.85;23.89;99565.13;5048952;27;96906;-84
2021/05/06 05:58:26;;;;;;;4.80;2.47;;;;;;;26.33;23.31;99558.84;5044664;27;97263;-85
2021/05/06 06:00:52;;;;;;;4.93;2.83;;;;;;;26.78;23.28;99562.72;5046051;27;101091;-84
2021/05/06 06:03:17;;;;;;;4.13;2.22;;;;;;;27.40;22.92;99556.53;5065907;27;101505;-85
2021/05/06 06:05:43;;;;;;;7.20;3.22;;;;;;;27.88;22.68;99553.66;5086333;27;96610;-86
2021/05/06 06:08:09;;;;;;;6.78;2.80;;;;;;;27.58;22.34;99555.38;5023839;27;96934;-87
2021/05/06 06:10:35;;;;;;;8.60;2.80;;;;;;;27.82;22.47;99554.38;5053806;27;98392;-87
2021/05/06 06:13:00;;;;;;;4.13;2.38;;;;;;;28.26;21.85;99550.91;5055779;27;97761;-87
2021/05/06 06:17:52;;;;;;;3.42;2.30;;;;;;;28.36;22.15;99556.84;5046921;27;97068;-87
2021/05/06 06:20:18;;;;;;;3.20;2.28;;;;;;;28.72;22.08;99558.84;5046955;27;97250;-87
2021/05/06 06:22:43;;;;;;;4.30;2.75;;;;;;;28.94;21.34;99557.84;5048408;27;98111;-87
2021/05/06 06:25:10;;;;;;;6.22;2.60;;;;;;;28.60;21.89;99548.53;5048468;27;97417;-87
2021/05/06 06:27:36;;;;;;;2.92;2.00;;;;;;;29.01;21.56;99552.56;5048484;27;99105;-87
2021/05/06 06:30:03;;;;;;;4.28;2.53;;;;;;;29.00;21.76;99551.72;5044658;27;98388;-87
2021/05/06 06:32:28;;;;;;;5.15;2.80;;;;;;;29.23;21.43;99545.34;5043382;27;99855;-86
2021/05/06 06:34:54;;;;;;;4.53;2.53;;;;;;;29.49;21.33;99552.88;5046426;27;97402;-81
2021/05/06 06:37:20;;;;;;;3.40;2.05;;;;;;;30.04;21.32;99551.28;5047202;27;97504;-80
2021/05/06 06:39:46;;;;;;;3.17;2.03;;;;;;;30.09;20.84;99550.72;5046806;27;97897;-80
2021/05/06 06:42:12;;;;;;;2.85;2.10;;;;;;;30.65;20.44;99545.22;5021169;27;101493;-82
2021/05/06 06:44:38;;;;;;;4.78;2.10;;;;;;;30.57;20.17;99545.41;5014527;27;97258;-81
2021/05/06 06:47:05;;;;;;;11.20;5.40;;;;;;;31.16;20.15;99549.44;5013305;27;96961;-81
2021/05/06 06:49:33;;;;;;;2.33;1.83;;;;;;;30.87;20.25;99538.69;5032491;27;98477;-86
2021/05/06 06:52:00;;;;;;;3.08;1.92;;;;;;;30.95;20.32;99543.13;5031595;27;98297;-86
2021/05/06 06:54:27;;;;;;;4.63;2.15;;;;;;;31.21;20.04;99539.63;5059289;27;97115;-88
2021/05/06 06:56:53;;;;;;;4.28;2.00;;;;;;;31.39;19.89;99544.50;5026149;27;97176;-88
2021/05/06 06:59:19;;;;;;;3.30;2.10;;;;;;;31.04;19.91;99539.19;5048927;27;98127;-91
2021/05/06 07:01:44;;;;;;;6.78;2.70;;;;;;;31.34;19.85;99536.94;5033765;27;100197;-92
2021/05/06 07:04:11;;;;;;;4.60;2.10;;;;;;;31.48;19.94;99540.53;5033818;27;96907;-85
2021/05/06 07:06:37;;;;;;;4.22;2.05;;;;;;;31.66;19.66;99533.69;5026241;27;97127;-85
2021/05/06 07:09:04;;;;;;;2.97;1.80;;;;;;;31.49;19.56;99544.09;5032226;27;101588;-81
2021/05/06 07:11:30;;;;;;;3.63;1.92;;;;;;;31.63;19.47;99529.50;5038112;27;101313;-88
2021/05/06 07:13:56;;;;;;;3.83;1.80;;;;;;;31.71;19.31;99534.72;5033945;27;97059;-84
2021/05/06 07:16:21;;;;;;;2.90;2.00;;;;;;;29.77;21.12;99536.72;5039853;27;96727;-89
2021/05/06 07:18:47;;;;;;;3.63;1.98;;;;;;;27.73;22.97;99538.25;5039342;27;98245;-89
2021/05/06 07:21:12;;;;;;;4.75;2.13;;;;;;;26.11;24.19;99541.56;5057106;27;97742;-89
2021/05/06 07:23:38;;;;;;;6.00;2.33;;;;;;;25.22;24.82;99537.88;5038830;27;96771;-89
2021/05/06 07:26:04;;;;;;;3.00;2.17;;;;;;;28.53;22.00;99531.38;5026477;27;97069;-90
2021/05/06 07:28:31;;;;;;;3.63;2.47;;;;;;;30.53;20.27;99534.13;5018381;27;100745;-89
2021/05/06 07:30:59;;;;;;;4.53;2.38;;;;;;;28.40;21.46;99537.41;5022897;27;100142;-90
2021/05/06 07:33:24;;;;;;;3.65;2.08;;;;;;;29.23;20.81;99527.25;5035942;27;97033;-88
2021/05/06 07:35:50;;;;;;;3.95;2.08;;;;;;;29.00;20.96;99522.00;5024779;27;97037;-87
2021/05/06 07:38:16;;;;;;;5.15;2.80;;;;;;;30.61;19.74;99519.59;5032339;27;98512;-89
2021/05/06 07:40:41;;;;;;;4.10;2.40;;;;;;;30.98;19.54;99521.03;5047304;27;100187;-88
2021/05/06 07:43:08;;;;;;;2.58;1.90;;;;;;;31.92;19.19;99524.72;5065639;27;96934;-89
2021/05/06 07:45:34;;;;;;;3.38;1.95;;;;;;;32.52;18.65;99514.56;5036787;27;96952;-85
2021/05/06 07:48:00;;;;;;;2.20;1.83;;;;;;;32.05;18.69;99524.69;5057384;27;100484;-89
2021/05/06 07:50:26;;;;;;;3.33;2.15;;;;;;;32.61;18.37;99515.16;5041460;27;100974;-87
2021/05/06 07:52:54;;;;;;;4.40;4.00;;;;;;;32.92;18.10;99512.53;5062745;27;96662;-87
2021/05/06 07:55:21;;;;;;;3.47;2.58;;;;;;;32.58;18.43;99513.75;5033853;27;96982;-87
2021/05/06 07:57:46;;;;;;;3.75;2.40;;;;;;;33.25;18.03;99516.13;5065676;27;101728;-89
2021/05/06 08:00:17;;;;;;;4.13;2.17;;;;;;;33.65;18.18;99519.41;5065280;27;100683;-86
2021/05/06 08:02:43;;;;;;;4.78;2.40;;;;;;;32.74;18.53;99506.97;5035624;27;96901;-86
2021/05/06 08:05:09;;;;;;;4.55;2.05;;;;;;;32.06;18.84;99517.38;5029067;27;97486;-85
2021/05/06 08:07:35;;;;;;;2.80;2.28;;;;;;;30.73;19.54;99512.56;5037522;27;101629;-88
2021/05/06 08:10:01;;;;;;;3.45;2.00;;;;;;;29.85;19.29;99528.47;5047608;27;100148;-91
2021/05/06 08:12:27;;;;;;;3.95;1.98;;;;;;;30.86;18.65;99515.38;5045463;27;96708;-87
2021/05/06 08:14:54;;;;;;;3.70;2.38;;;;;;;31.66;17.99;99510.09;5059825;27;97158;-87
2021/05/06 08:17:19;;;;;;;2.58;2.05;;;;;;;32.19;18.03;99509.22;5044271;27;101576;-87
2021/05/06 08:19:47;;;;;;;6.78;2.45;;;;;;;31.71;17.89;99514.91;5061529;27;100966;-88
2021/05/06 08:22:13;;;;;;;3.50;2.03;;;;;;;31.11;17.89;99503.97;5043564;27;97202;-88
2021/05/06 08:24:39;;;;;;;3.67;2.08;;;;;;;28.01;19.89;99516.09;5045317;27;98226;-87
2021/05/06 08:27:05;;;;;;;2.72;1.90;;;;;;;25.70;22.05;99514.69;5040334;27;100955;-87
2021/05/06 08:29:30;;;;;;;1.98;1.63;;;;;;;25.89;21.80;99512.69;5051429;27;97901;-87
2021/05/06 08:31:56;;;;;;;4.32;1.60;;;;;;;25.64;22.50;99510.00;5055155;27;97541;-87
2021/05/06 08:34:22;;;;;;;5.13;1.95;;;;;;;26.82;21.96;99512.06;5044044;27;96846;-86
2021/05/06 08:36:47;;;;;;;2.60;1.60;;;;;;;25.95;22.43;99515.56;5040168;27;101158;-88
2021/05/06 08:39:13;;;;;;;8.90;2.55;;;;;;;25.21;22.87;99517.38;5035708;27;100146;-90
2021/05/06 08:41:40;;;;;;;3.22;1.92;;;;;;;24.21;23.41;99524.34;5067766;27;96897;-87
2021/05/06 08:44:07;;;;;;;8.98;2.20;;;;;;;25.51;22.20;99523.97;5054107;27;96899;-87
2021/05/06 08:46:35;;;;;;;5.70;2.22;;;;;;;27.08;21.11;99528.75;5051271;27;101327;-88
2021/05/06 08:49:03;;;;;;;2.58;1.83;;;;;;;26.22;21.22;99518.84;5040844;27;101007;-90
2021/05/06 08:51:29;;;;;;;3.05;1.60;;;;;;;25.06;22.45;99516.31;5033602;27;97259;-87
2021/05/06 08:53:55;;;;;;;6.10;1.92;;;;;;;26.64;22.22;99515.84;5040856;27;97031;-88
2021/05/06 08:56:21;;;;;;;17.73;2.88;;;;;;;26.96;21.41;99507.78;5062151;27;98413;-85
2021/05/06 08:58:46;;;;;;;10.23;2.72;;;;;;;26.25;20.66;99509.59;5050597;27;101972;-89
2021/05/06 09:01:12;;;;;;;10.30;2.05;;;;;;;26.18;22.02;99512.16;5069145;27;97178;-88
2021/05/06 09:03:37;;;;;;;8.73;2.20;;;;;;;25.79;21.66;99507.47;5045410;27;98010;-83
2021/05/06 09:06:23;;;;;;;6.05;1.88;;;;;;;25.11;21.85;99521.19;5045287;27;97390;-84
2021/05/06 09:08:57;;;;;;;8.32;2.10;;;;;;;24.05;22.04;99517.03;5039409;27;98374;-87
2021/05/06 09:11:34;;;;;;;4.10;1.90;;;;;;;23.14;23.42;99514.63;5048348;27;97216;-85
2021/05/06 09:14:04;;;;;;;10.85;5.15;;;;;;;22.93;23.67;99514.88;5045437;27;97353;-83
2021/05/06 09:16:41;;;;;;;3.95;1.75;;;;;;;22.99;24.05;99506.28;5025159;27;101024;-82
2021/05/06 09:19:08;;;;;;;15.65;11.45;;;;;;;22.78;23.35;99516.38;5048492;27;101512;-82
2021/05/06 09:21:39;;;;;;;9.23;2.75;;;;;;;22.68;23.11;99510.25;5053765;27;96813;-82
2021/05/06 09:24:06;;;;;;;14.52;4.05;;;;;;;22.60;23.78;99513.66;5053560;27;96756;-87
2021/05/06 09:26:32;;;;;;;9.48;2.15;;;;;;;22.48;23.86;99512.16;5067084;27;98606;-87
2021/05/06 09:29:01;;;;;;;6.88;2.03;;;;;;;22.21;23.97;99507.66;5034294;27;99738;-86
2021/05/06 09:31:26;;;;;;;7.05;2.65;;;;;;;22.07;24.97;99514.25;5040947;27;96924;-87
2021/05/06 09:33:52;;;;;;;11.35;3.08;;;;;;;21.90;25.32;99507.84;5059757;27;96950;-86
2021/05/06 09:36:20;;;;;;;6.20;2.70;;;;;;;21.83;25.94;99509.41;5066444;27;97976;-81
2021/05/06 09:38:54;;;;;;;10.57;2.30;;;;;;;21.76;23.83;99510.94;5037743;27;101041;-90
2021/05/06 09:41:35;;;;;;;8.05;2.28;;;;;;;21.38;23.95;99504.66;5041517;27;97058;-87
2021/05/06 09:44:11;;;;;;;;;;;;;;;20.90;24.19;99508.97;5040308;27;97500;-87
2021/05/06 09:46:43;;;;;;;11.38;2.85;;;;;;;20.93;24.98;99514.03;5060561;27;100166;-90
2021/05/06 09:49:16;;;;;;;3.15;1.60;;;;;;;20.74;25.50;99519.31;5058665;27;98655;-91
2021/05/06 09:51:48;;;;;;;5.07;2.00;;;;;;;20.61;25.68;99516.06;5058218;27;96802;-90
2021/05/06 09:54:26;;;;;;;3.03;1.60;;;;;;;20.10;26.32;99518.66;5070629;27;97271;-89
2021/05/06 09:57:00;;;;;;;3.35;1.77;;;;;;;19.79;27.38;99517.75;5050680;27;98510;-88
2021/05/06 09:59:31;;;;;;;5.60;2.63;;;;;;;19.54;28.65;99523.41;5058705;27;100666;-88
2021/05/06 10:02:07;;;;;;;3.15;1.95;;;;;;;19.30;29.08;99523.66;5038472;27;97383;-85
2021/05/06 10:04:32;;;;;;;6.45;2.83;;;;;;;19.26;30.39;99514.22;5087296;27;96935;-87
2021/05/06 10:07:05;;;;;;;4.30;2.03;;;;;;;19.41;29.90;99512.97;5031779;27;101873;-87
2021/05/06 10:09:31;;;;;;;4.95;1.90;;;;;;;19.57;29.50;99515.19;5049895;27;100206;-90
2021/05/06 10:12:01;;;;;;;4.55;1.80;;;;;;;19.31;28.75;99509.38;5075295;27;97268;-90
2021/05/06 10:14:27;;;;;;;5.20;1.80;;;;;;;19.17;28.52;99503.41;5039090;27;97161;-88
2021/05/06 10:16:53;;;;;;;3.22;1.73;;;;;;;19.57;28.29;99491.22;5044674;27;99694;-89
2021/05/06 10:19:19;;;;;;;4.05;1.67;;;;;;;19.79;28.59;99491.13;5033135;27;100718;-86
2021/05/06 10:21:45;;;;;;;6.03;2.42;;;;;;;19.55;28.77;99485.22;5037086;27;96868;-81
2021/05/06 10:24:13;;;;;;;4.25;2.03;;;;;;;19.75;29.23;99478.19;5035847;27;97016;-82
2021/05/06 10:26:39;;;;;;;2.53;1.63;;;;;;;19.34;28.27;99478.03;5034917;27;101317;-82
2021/05/06 10:29:05;;;;;;;5.05;1.50;;;;;;;19.26;27.76;99474.31;5035058;27;98293;-82
2021/05/06 10:31:30;;;;;;;3.85;1.95;;;;;;;19.12;27.47;99465.69;5034810;27;96798;-81
2021/05/06 10:33:56;;;;;;;9.77;1.80;;;;;;;18.94;27.62;99462.75;5051575;27;97106;-81
2021/05/06 10:36:23;;;;;;;5.60;1.98;;;;;;;19.00;27.72;99469.38;5043542;27;101013;-81
2021/05/06 10:38:48;;;;;;;6.22;1.60;;;;;;;18.87;27.76;99468.69;5069233;27;98400;-82
2021/05/06 10:41:29;;;;;;;11.30;3.20;;;;;;;19.11;27.99;99471.13;5027228;27;97114;-80
2021/05/06 10:43:59;;;;;;;8.30;2.47;;;;;;;18.99;27.55;99467.66;5065993;27;96819;-82
2021/05/06 10:46:56;;;;;;;12.80;1.80;;;;;;;18.93;27.84;99474.31;5018170;27;101789;-81
2021/05/06 10:49:23;;;;;;;6.50;2.00;;;;;;;18.68;27.72;99462.19;5041774;27;101971;-82
2021/05/06 10:51:58;;;;;;;10.10;2.28;;;;;;;18.47;28.82;99475.38;5051539;27;98215;-82
2021/05/06 10:54:34;;;;;;;4.50;1.92;;;;;;;18.62;28.18;99473.31;5061732;27;97926;-82
2021/05/06 10:57:23;;;;;;;7.35;2.30;;;;;;;18.49;28.09;99460.16;5060343;27;101916;-82
2021/05/06 10:59:49;;;;;;;8.30;2.33;;;;;;;18.63;28.08;99480.31;5043910;27;102179;-80
2021/05/06 11:02:34;;;;;;;9.30;2.42;;;;;;;18.32;28.00;99466.84;5055031;27;97402;-81
2021/05/06 11:05:18;;;;;;;7.88;2.85;;;;;;;18.13;28.30;99471.06;5052359;27;97197;-81
2021/05/06 11:08:02;;;;;;;21.38;3.55;;;;;;;17.98;28.55;99494.34;5070344;27;101217;-81
2021/05/06 11:10:28;;;;;;;13.90;3.17;;;;;;;17.39;29.23;99498.78;5078837;27;98146;-82
2021/05/06 11:12:59;;;;;;;7.65;1.88;;;;;;;17.66;30.20;99497.66;5069921;27;97443;-81
2021/05/06 11:15:26;;;;;;;7.73;1.97;;;;;;;17.43;31.80;99497.59;5060640;27;97284;-80
2021/05/06 11:17:53;;;;;;;8.98;1.85;;;;;;;17.28;32.16;99508.47;5022803;27;101732;-81
2021/05/06 11:20:19;;;;;;;7.55;2.03;;;;;;;16.66;35.40;99528.84;5037065;27;101192;-81
2021/05/06 11:22:49;;;;;;;5.28;3.10;;;;;;;16.08;39.43;99527.66;5054880;27;96882;-81
2021/05/06 11:27:59;;;;;;;2.85;1.77;;;;;;;16.41;40.98;99518.31;5063719;27;101383;-81
2021/05/06 11:30:42;;;;;;;2.47;1.92;;;;;;;16.68;40.64;99511.03;5031262;27;101484;-82
2021/05/06 11:33:17;;;;;;;9.63;2.40;;;;;;;16.80;40.91;99511.16;5071039;27;96779;-81
2021/05/06 11:36:17;;;;;;;4.72;2.53;;;;;;;17.01;40.75;99509.56;5054694;27;97000;-79
2021/05/06 11:38:51;;;;;;;7.15;2.35;;;;;;;17.23;39.88;99498.22;5037747;27;101598;-81
2021/05/06 11:41:34;;;;;;;7.57;2.28;;;;;;;17.07;38.74;99487.06;5034243;27;101792;-81
2021/05/06 11:44:03;;;;;;;3.97;2.08;;;;;;;16.64;38.69;99485.72;5028201;27;97253;-81
2021/05/06 11:46:38;;;;;;;2.83;2.00;;;;;;;16.65;38.88;99490.06;5063994;27;96838;-79
2021/05/06 11:49:06;;;;;;;2.78;1.80;;;;;;;16.67;38.99;99495.28;5054596;27;98224;-89
2021/05/06 11:51:42;;;;;;;3.28;1.98;;;;;;;16.52;38.56;99482.16;5035482;27;101253;-89
2021/05/06 11:54:14;;;;;;;5.38;2.15;;;;;;;16.42;37.89;99489.06;5037595;27;97384;-86
2021/05/06 11:56:44;;;;;;;;;;;;;;;16.13;38.83;99482.34;5053706;27;97090;-89
2021/05/06 11:59:14;;;;;;;3.38;2.10;;;;;;;16.12;39.12;99473.56;5033111;27;100015;-88
2021/05/06 12:01:40;;;;;;;3.80;2.00;;;;;;;16.09;38.10;99463.19;5059570;27;101296;-89
2021/05/06 12:04:06;;;;;;;6.35;1.95;;;;;;;16.22;38.39;99468.44;5051134;27;97282;-85
2021/05/06 12:06:36;;;;;;;7.25;2.15;;;;;;;16.33;37.31;99459.75;5082791;27;97241;-87
2021/05/06 12:09:08;;;;;;;4.40;1.92;;;;;;;16.20;37.26;99468.56;5052668;27;102195;-91
2021/05/06 12:11:41;;;;;;;3.92;2.08;;;;;;;16.26;36.75;99457.53;5058879;27;96827;-89
2021/05/06 12:14:09;;;;;;;3.50;1.73;;;;;;;16.35;36.90;99445.44;5065161;27;96730;-85
2021/05/06 12:16:36;;;;;;;2.45;1.70;;;;;;;16.48;37.93;99445.41;5051375;27;97421;-89
2021/05/06 12:19:10;;;;;;;4.55;2.30;;;;;;;16.45;36.70;99435.88;5034210;27;101296;-88
2021/05/06 12:21:47;;;;;;;7.18;2.60;;;;;;;16.45;36.52;99442.97;5048281;27;99825;-88
2021/05/06 12:24:24;;;;;;;4.30;2.05;;;;;;;16.26;36.89;99432.84;5051846;27;96816;-88
2021/05/06 12:26:49;;;;;;;6.32;1.77;;;;;;;16.06;37.19;99436.94;5058233;27;96757;-89
2021/05/06 12:29:20;;;;;;;1.95;1.48;;;;;;;15.88;37.93;99427.63;5038846;27;99940;-86
2021/05/06 12:31:47;;;;;;;4.70;2.10;;;;;;;15.81;38.21;99419.28;5040828;27;101833;-89
2021/05/06 12:34:23;;;;;;;3.67;1.73;;;;;;;15.96;37.26;99434.06;5040917;27;99788;-76
2021/05/06 12:36:51;;;;;;;4.40;1.90;;;;;;;16.03;36.74;99427.41;5033316;27;97045;-76
2021/05/06 12:39:18;;;;;;;5.57;1.67;;;;;;;16.13;36.63;99424.94;5048860;27;101076;-76
2021/05/06 12:41:57;;;;;;;4.03;1.65;;;;;;;16.32;36.58;99418.31;5057638;27;99565;-76
2021/05/06 12:44:47;;;;;;;4.75;1.80;;;;;;;16.14;36.56;99409.91;5074511;27;97234;-76
2021/05/06 12:47:27;;;;;;;3.78;1.90;;;;;;;16.18;36.70;99412.22;5045857;27;96843;-76
2021/05/06 12:50:26;;;;;;;7.20;1.88;;;;;;;16.21;36.75;99413.81;5052782;27;99493;-77
2021/05/06 12:52:56;;;;;;;2.28;1.58;;;;;;;16.10;37.25;99416.38;5044173;27;97969;-77
2021/05/06 12:55:22;;;;;;;4.82;1.75;;;;;;;16.21;37.09;99412.00;5067032;27;97214;-77
2021/05/06 12:58:28;;;;;;;4.63;1.50;;;;;;;16.06;36.35;99406.00;5073752;27;97247;-78
2021/05/06 13:00:57;;;;;;;5.78;1.73;;;;;;;16.09;36.99;99404.09;4967074;28;96935;-77
2021/05/06 13:03:29;;;;;;;5.82;1.38;;;;;;;16.03;36.82;99406.22;4989764;28;97993;-79
2021/05/06 13:05:55;;;;;;;6.40;1.83;;;;;;;16.12;36.92;99399.44;4961074;28;97391;-77
2021/05/06 13:08:35;;;;;;;5.53;1.55;;;;;;;16.27;36.36;99400.97;4972675;28;96925;-77
2021/05/06 13:11:02;;;;;;;4.97;1.77;;;;;;;16.37;35.73;99397.66;4952702;28;100889;-79
2021/05/06 13:13:41;;;;;;;4.05;1.63;;;;;;;16.31;35.10;99391.00;4985932;28;101245;-83
2021/05/06 13:16:16;;;;;;;3.63;1.50;;;;;;;16.23;35.29;99382.75;4968822;28;97136;-81
2021/05/06 13:18:57;;;;;;;6.43;1.45;;;;;;;16.29;35.83;99388.47;4981133;28;96952;-80
2021/05/06 13:21:23;;;;;;;2.97;1.65;;;;;;;16.29;35.67;99392.94;4943209;28;101531;-80
2021/05/06 13:23:52;;;;;;;3.70;1.70;;;;;;;16.39;35.64;99380.69;4985157;28;100975;-80
2021/05/06 13:26:35;;;;;;;2.92;1.70;;;;;;;16.47;35.64;99386.28;4974903;28;97157;-80
2021/05/06 13:29:12;;;;;;;3.92;1.90;;;;;;;16.53;35.96;99380.53;4938616;28;97045;-80
2021/05/06 13:31:39;;;;;;;3.55;1.65;;;;;;;16.53;35.72;99366.44;4988327;27;101469;-80
2021/05/06 13:34:19;;;;;;;8.23;2.25;;;;;;;16.59;35.24;99373.94;5053246;27;102218;-80
2021/05/06 13:36:57;;;;;;;4.22;1.70;;;;;;;16.61;35.07;99373.81;5053461;27;97142;-81
2021/05/06 13:39:22;;;;;;;3.80;2.00;;;;;;;16.63;35.33;99369.25;5048852;27;97233;-80
2021/05/06 13:41:48;;;;;;;3.58;1.55;;;;;;;16.46;35.26;99360.75;5037814;27;101139;-80
2021/05/06 13:44:16;;;;;;;3.65;1.70;;;;;;;16.43;35.46;99368.91;5037367;27;101606;-80
2021/05/06 13:46:55;;;;;;;7.25;2.30;;;;;;;16.42;35.73;99369.88;5032266;27;97300;-80
2021/05/06 13:49:30;;;;;;;3.63;1.95;;;;;;;16.43;35.70;99360.97;5039641;27;97278;-80
2021/05/06 13:51:57;;;;;;;3.88;1.88;;;;;;;16.40;35.45;99352.41;5038814;27;101713;-80
2021/05/06 13:54:25;;;;;;;2.42;1.63;;;;;;;16.36;35.01;99361.53;5055876;27;98500;-80
2021/05/06 13:56:50;;;;;;;3.03;1.88;;;;;;;16.38;35.20;99357.00;5039146;27;97504;-80
2021/05/06 13:59:16;;;;;;;6.80;1.80;;;;;;;16.37;34.99;99361.41;5025342;27;97262;-81
2021/05/06 14:01:42;;;;;;;3.38;1.55;;;;;;;16.12;35.19;99349.13;5053995;27;98492;-81
2021/05/06 14:04:08;;;;;;;4.30;1.45;;;;;;;15.92;35.79;99358.50;5035496;27;101717;-80
2021/05/06 14:06:34;;;;;;;6.57;2.08;;;;;;;15.77;36.42;99378.13;5051535;27;97129;-81
2021/05/06 14:09:00;;;;;;;3.25;1.80;;;;;;;15.75;36.89;99359.69;5036036;27;98042;-80
2021/05/06 14:11:26;;;;;;;3.53;1.30;;;;;;;15.75;37.13;99366.78;5023564;27;100119;-80
2021/05/06 14:13:54;;;;;;;4.05;1.58;;;;;;;15.77;36.54;99363.09;5030530;27;100945;-80
2021/05/06 14:16:20;;;;;;;3.03;1.50;;;;;;;15.78;37.08;99363.91;5038528;27;97070;-80
2021/05/06 14:18:47;;;;;;;3.45;1.50;;;;;;;15.84;36.94;99363.50;5039706;27;97078;-80
2021/05/06 14:21:14;;;;;;;2.00;1.30;;;;;;;15.91;37.35;99350.66;5051599;27;98544;-80
2021/05/06 14:23:44;;;;;;;6.80;1.98;;;;;;;16.00;36.49;99350.88;5053166;27;101374;-81
2021/05/06 14:26:10;;;;;;;5.78;1.98;;;;;;;16.04;36.69;99332.94;5060204;27;98010;-80
2021/05/06 14:28:36;;;;;;;4.00;1.95;;;;;;;16.02;36.71;99333.06;5042664;27;96787;-80
2021/05/06 14:31:01;;;;;;;4.05;1.98;;;;;;;15.95;36.46;99329.16;5042360;27;101269;-80
2021/05/06 14:33:27;;;;;;;2.85;1.60;;;;;;;15.96;36.02;99320.25;5038015;27;101476;-81
2021/05/06 14:35:53;;;;;;;5.25;1.80;;;;;;;15.96;36.32;99325.56;5055144;27;97098;-80
2021/05/06 14:38:18;;;;;;;3.42;1.75;;;;;;;15.88;35.58;99312.03;5038041;27;96884;-80
2021/05/06 14:40:44;;;;;;;5.55;2.08;;;;;;;15.75;36.03;99322.66;5044476;27;101825;-81
2021/05/06 14:43:09;;;;;;;2.80;1.85;;;;;;;15.83;36.06;99320.31;5054006;27;101612;-90
2021/05/06 14:45:36;;;;;;;3.42;1.80;;;;;;;15.84;36.45;99322.00;5053780;27;97166;-80
2021/05/06 14:48:03;;;;;;;4.03;2.00;;;;;;;15.81;36.19;99311.63;5035894;27;97091;-78
2021/05/06 14:50:29;;;;;;;4.57;1.45;;;;;;;15.94;36.48;99308.97;5037789;27;101966;-78
2021/05/06 14:52:55;;;;;;;5.60;1.80;;;;;;;15.91;36.50;99314.47;5072498;27;98316;-78
2021/05/06 14:55:21;;;;;;;2.72;1.80;;;;;;;15.93;36.66;99301.97;5059053;27;97053;-79
2021/05/06 14:57:47;;;;;;;3.70;1.85;;;;;;;15.96;36.91;99304.38;5037063;27;97321;-79
2021/05/06 15:00:14;;;;;;;2.95;1.80;;;;;;;15.84;36.90;99302.63;5070838;27;97635;-78
2021/05/06 15:02:41;;;;;;;4.38;2.00;;;;;;;15.69;36.67;99306.38;5073085;27;97976;-81
2021/05/06 15:05:08;;;;;;;6.63;1.60;;;;;;;15.60;36.79;99311.31;5031746;27;97164;-81
2021/05/06 15:07:33;;;;;;;6.45;1.80;;;;;;;15.52;36.92;99302.25;5072085;27;97535;-80
2021/05/06 15:09:59;;;;;;;4.68;2.15;;;;;;;15.48;37.61;99298.13;5050953;27;101353;-81
2021/05/06 15:12:24;;;;;;;4.32;2.28;;;;;;;15.52;37.55;99295.16;5047798;27;100654;-81